Time;durP1;ratioP1;P1;durP2;ratioP2;P2;SDS_P1;SDS_P2;PMS_P1;PMS_P2;Temp;Humidity;BMP_temperature;BMP_pressure;BME280_temperature;BME280_humidity;BME280_pressure;Samples;Min_cycle;Max_cycle;Signal;HPM_P1;HPM_P2
2022/07/30 00:00:00;;;;;;;8.20;2.57;;;20.10;97.30;;;;;;5059990;28;20438;-84
2022/07/30 00:02:25;;;;;;;1.77;1.67;;;20.00;97.30;;;;;;5058807;28;20195;-85
2022/07/30 00:04:51;;;;;;;3.43;2.53;;;20.00;97.30;;;;;;5059167;28;20179;-84
2022/07/30 00:07:17;;;;;;;5.47;2.60;;;20.00;97.30;;;;;;5058218;28;20738;-85
2022/07/30 00:09:42;;;;;;;2.33;1.70;;;19.90;97.30;;;;;;5060450;28;20669;-85
2022/07/30 00:12:08;;;;;;;2.60;2.40;;;19.80;97.30;;;;;;5061364;28;20611;-85
2022/07/30 00:14:35;;;;;;;3.43;3.23;;;19.80;97.30;;;;;;5059490;28;20176;-84
2022/07/30 00:17:01;;;;;;;2.80;2.60;;;19.80;97.30;;;;;;5059808;28;20423;-84
2022/07/30 00:19:27;;;;;;;4.77;3.70;;;19.80;97.30;;;;;;5065323;28;20809;-84
2022/07/30 00:21:53;;;;;;;6.77;3.30;;;19.70;97.30;;;;;;5059392;28;20426;-84
2022/07/30 00:24:20;;;;;;;14.00;4.47;;;19.70;97.30;;;;;;5058388;28;20433;-84
2022/07/30 00:26:46;;;;;;;3.83;3.63;;;19.70;97.30;;;;;;5059352;28;20438;-83
2022/07/30 00:29:11;;;;;;;2.83;2.37;;;19.60;97.30;;;;;;5059581;28;20442;-84
2022/07/30 00:31:37;;;;;;;6.57;3.90;;;19.60;97.30;;;;;;5058530;28;20672;-83
2022/07/30 00:34:03;;;;;;;3.17;2.80;;;19.50;97.30;;;;;;5060393;28;20176;-83
2022/07/30 00:36:28;;;;;;;2.67;2.40;;;19.40;97.30;;;;;;5059295;28;20160;-83
2022/07/30 00:38:54;;;;;;;3.53;3.40;;;19.40;97.30;;;;;;5058243;28;20219;-84
2022/07/30 00:41:19;;;;;;;5.43;2.63;;;19.40;97.30;;;;;;5056896;28;20625;-84
2022/07/30 00:43:45;;;;;;;2.50;2.30;;;19.30;97.30;;;;;;5057457;28;20167;-84
2022/07/30 00:46:11;;;;;;;3.60;2.93;;;19.30;97.30;;;;;;5057798;28;20210;-84
2022/07/30 00:48:37;;;;;;;5.20;4.00;;;19.20;97.30;;;;;;5058128;28;20586;-84
2022/07/30 00:51:02;;;;;;;2.97;2.77;;;19.20;97.30;;;;;;5057217;28;20226;-84
2022/07/30 00:53:28;;;;;;;3.83;2.33;;;19.20;97.30;;;;;;5058823;28;20190;-83
2022/07/30 00:55:53;;;;;;;3.63;2.37;;;19.20;97.30;;;;;;5058519;28;20230;-85
2022/07/30 00:58:20;;;;;;;3.30;3.00;;;19.10;97.30;;;;;;5059352;28;20657;-84
2022/07/30 01:00:45;;;;;;;4.53;3.30;;;19.10;97.30;;;;;;5058206;28;20184;-84
2022/07/30 01:03:11;;;;;;;3.80;3.33;;;19.10;97.30;;;;;;5066265;28;20510;-84
2022/07/30 01:05:37;;;;;;;6.83;2.60;;;19.10;97.30;;;;;;5061396;28;20188;-84
2022/07/30 01:08:02;;;;;;;4.83;3.33;;;19.10;97.30;;;;;;5055264;28;20740;-84
2022/07/30 01:10:28;;;;;;;5.43;3.20;;;19.10;97.30;;;;;;5054170;28;20203;-84
2022/07/30 01:12:54;;;;;;;6.70;3.10;;;19.10;97.30;;;;;;5054317;28;20206;-84
2022/07/30 01:15:20;;;;;;;7.87;2.30;;;19.10;97.30;;;;;;5063181;28;20182;-84
2022/07/30 01:17:48;;;;;;;2.77;2.53;;;19.10;97.30;;;;;;5060271;28;20172;-84
2022/07/30 01:20:23;;;;;;;5.30;3.67;;;19.10;97.30;;;;;;5053664;28;20471;-84
2022/07/30 01:23:03;;;;;;;2.90;2.60;;;19.10;97.30;;;;;;5066892;28;20479;-84
2022/07/30 01:25:50;;;;;;;5.80;4.37;;;19.10;97.30;;;;;;5053587;28;20425;-85
2022/07/30 01:28:21;;;;;;;3.63;2.77;;;19.00;97.30;;;;;;5056861;28;20903;-85
2022/07/30 01:30:47;;;;;;;4.93;3.20;;;19.00;97.30;;;;;;5052464;28;20488;-85
2022/07/30 01:33:15;;;;;;;3.20;2.53;;;19.00;97.30;;;;;;5052087;28;20764;-85
2022/07/30 01:35:43;;;;;;;4.37;3.30;;;19.00;97.30;;;;;;5051329;28;20446;-85
2022/07/30 01:38:11;;;;;;;3.13;2.90;;;19.00;97.30;;;;;;5052727;28;20513;-85
2022/07/30 01:40:38;;;;;;;4.57;3.60;;;19.00;97.30;;;;;;5051933;28;20427;-85
2022/07/30 01:43:06;;;;;;;3.67;3.10;;;18.90;97.30;;;;;;5052374;28;20935;-84
2022/07/30 01:45:33;;;;;;;3.93;3.60;;;18.90;97.30;;;;;;5052875;28;20426;-84
2022/07/30 01:48:00;;;;;;;6.50;3.73;;;18.90;97.30;;;;;;5069685;28;20617;-84
2022/07/30 01:50:27;;;;;;;4.50;3.43;;;18.90;97.30;;;;;;5038955;28;20552;-84
2022/07/30 01:52:55;;;;;;;2.70;2.50;;;18.80;97.30;;;;;;5052498;28;20831;-85
2022/07/30 01:55:35;;;;;;;4.30;3.97;;;18.80;97.30;;;;;;5055858;28;21032;-85
2022/07/30 01:58:04;;;;;;;2.90;2.67;;;18.80;97.30;;;;;;5052666;28;20449;-84
2022/07/30 02:00:32;;;;;;;3.40;3.13;;;18.80;97.30;;;;;;5053179;28;20422;-84
2022/07/30 02:05:36;;;;;;;5.13;2.80;;;18.70;97.30;;;;;;5031297;28;20838;-83
2022/07/30 02:08:34;;;;;;;6.33;2.37;;;18.60;97.30;;;;;;5015058;28;20435;-83
2022/07/30 02:11:06;;;;;;;4.23;3.37;;;18.60;97.30;;;;;;4990345;28;21017;-83
2022/07/30 02:13:34;;;;;;;2.97;2.77;;;18.60;97.30;;;;;;5015478;28;20419;-84
2022/07/30 02:16:33;;;;;;;2.90;2.80;;;18.60;97.30;;;;;;5015286;28;20997;-84
2022/07/30 02:19:05;;;;;;;8.13;4.10;;;18.70;97.30;;;;;;5015292;28;20443;-83
2022/07/30 02:21:36;;;;;;;9.47;3.53;;;18.70;97.30;;;;;;5015487;28;20416;-84
2022/07/30 02:24:04;;;;;;;6.20;3.77;;;18.70;97.30;;;;;;5015506;28;20419;-83
2022/07/30 02:26:31;;;;;;;3.97;2.93;;;18.70;97.30;;;;;;5015836;28;20490;-83
2022/07/30 02:29:00;;;;;;;4.90;4.00;;;18.70;97.30;;;;;;5032064;28;20426;-84
2022/07/30 02:31:28;;;;;;;7.37;4.63;;;18.70;97.30;;;;;;5014778;28;20461;-84
2022/07/30 02:33:59;;;;;;;6.03;3.50;;;18.70;97.30;;;;;;5015149;28;20430;-84
2022/07/30 02:36:26;;;;;;;3.30;3.10;;;18.70;97.30;;;;;;5015335;28;20474;-84
2022/07/30 02:38:53;;;;;;;4.10;3.00;;;18.70;97.30;;;;;;5015296;28;20505;-84
2022/07/30 02:41:21;;;;;;;4.60;3.70;;;18.70;97.30;;;;;;5015225;28;20427;-84
2022/07/30 02:43:48;;;;;;;2.90;2.63;;;18.70;97.30;;;;;;5015405;28;20811;-83
2022/07/30 02:46:17;;;;;;;3.77;2.93;;;18.70;97.30;;;;;;5015347;28;20416;-84
2022/07/30 02:48:45;;;;;;;4.13;3.27;;;18.70;97.30;;;;;;5017793;28;20447;-86
2022/07/30 02:51:15;;;;;;;5.20;3.93;;;18.70;97.30;;;;;;5018600;28;20476;-86
2022/07/30 02:53:46;;;;;;;4.73;3.87;;;18.70;97.30;;;;;;5018518;28;20778;-86
2022/07/30 02:56:14;;;;;;;7.73;4.33;;;18.70;97.30;;;;;;5018118;28;20422;-86
2022/07/30 02:58:42;;;;;;;3.30;2.87;;;18.70;97.30;;;;;;5018396;28;20435;-86
2022/07/30 03:01:10;;;;;;;2.60;2.40;;;18.70;97.30;;;;;;5018182;28;20425;-86
2022/07/30 03:03:36;;;;;;;6.53;4.37;;;18.70;97.30;;;;;;5018133;28;20454;-86
2022/07/30 03:06:04;;;;;;;3.27;3.00;;;18.70;97.30;;;;;;5018802;28;20474;-86
2022/07/30 03:08:31;;;;;;;3.10;2.90;;;18.70;97.30;;;;;;5017965;28;20439;-86
2022/07/30 03:10:57;;;;;;;4.13;3.60;;;18.70;97.30;;;;;;5017855;28;20465;-86
2022/07/30 03:13:23;;;;;;;5.27;5.03;;;18.60;97.30;;;;;;5017865;28;20419;-86
2022/07/30 03:15:51;;;;;;;3.70;2.97;;;18.60;97.30;;;;;;5017661;28;20485;-86
2022/07/30 03:18:19;;;;;;;6.63;3.90;;;18.60;97.30;;;;;;5017985;28;20463;-86
2022/07/30 03:20:48;;;;;;;8.13;4.43;;;18.60;97.30;;;;;;5017733;28;20430;-86
2022/07/30 03:23:16;;;;;;;3.87;3.63;;;18.60;97.30;;;;;;5017801;28;20959;-86
2022/07/30 03:25:47;;;;;;;5.50;3.97;;;18.60;97.30;;;;;;5018639;28;20422;-86
2022/07/30 03:28:14;;;;;;;6.60;3.60;;;18.60;97.30;;;;;;5018351;28;20526;-86
2022/07/30 03:30:42;;;;;;;7.27;4.03;;;18.50;97.30;;;;;;5035416;28;20963;-86
2022/07/30 03:33:09;;;;;;;3.93;3.77;;;18.50;97.30;;;;;;5017842;28;20485;-86
2022/07/30 03:35:36;;;;;;;3.83;3.30;;;18.50;97.30;;;;;;5017527;28;20426;-86
2022/07/30 03:38:02;;;;;;;9.50;3.80;;;18.50;97.30;;;;;;5018396;28;20489;-86
2022/07/30 03:40:28;;;;;;;3.77;2.93;;;18.50;97.30;;;;;;5017849;28;20423;-86
2022/07/30 03:42:54;;;;;;;6.40;4.67;;;18.50;97.30;;;;;;5018510;28;20232;-86
2022/07/30 03:45:20;;;;;;;6.43;5.13;;;18.50;97.30;;;;;;5017294;28;20428;-86
2022/07/30 03:47:47;;;;;;;6.97;4.50;;;18.50;97.30;;;;;;5017640;28;20450;-86
2022/07/30 03:50:14;;;;;;;4.10;3.07;;;18.50;97.30;;;;;;5017553;28;20196;-86
2022/07/30 03:52:40;;;;;;;9.80;3.30;;;18.50;97.30;;;;;;5035528;28;20458;-86
2022/07/30 03:55:08;;;;;;;12.30;4.80;;;18.40;97.30;;;;;;5017016;28;20481;-86
2022/07/30 03:57:34;;;;;;;4.40;3.40;;;18.40;97.30;;;;;;5017312;28;20764;-86
2022/07/30 04:00:00;;;;;;;4.73;3.70;;;18.30;97.30;;;;;;5016811;28;20443;-87
2022/07/30 04:02:26;;;;;;;4.57;3.87;;;18.30;97.30;;;;;;5017231;28;20798;-87
2022/07/30 04:04:52;;;;;;;7.83;4.00;;;18.20;97.30;;;;;;5017058;28;20470;-87
2022/07/30 04:07:18;;;;;;;4.73;3.67;;;18.10;97.30;;;;;;5016970;28;20329;-86
2022/07/30 04:09:43;;;;;;;5.20;3.50;;;18.10;97.30;;;;;;5017233;28;20211;-86
2022/07/30 04:12:09;;;;;;;4.30;4.00;;;18.10;97.30;;;;;;5017170;28;20184;-87
2022/07/30 04:14:43;;;;;;;5.50;3.80;;;18.00;97.30;;;;;;5017064;28;20633;-86
2022/07/30 04:17:23;;;;;;;3.97;3.23;;;18.00;97.30;;;;;;5016587;28;20633;-87
2022/07/30 04:19:52;;;;;;;3.93;3.20;;;18.00;97.30;;;;;;5016704;28;20438;-86
2022/07/30 04:22:26;;;;;;;5.20;3.90;;;18.00;97.30;;;;;;5016828;28;20419;-86
2022/07/30 04:24:52;;;;;;;5.03;3.67;;;18.00;97.30;;;;;;5016480;28;20480;-86
2022/07/30 04:27:18;;;;;;;4.40;2.90;;;18.00;97.30;;;;;;5033956;28;20419;-87
2022/07/30 04:29:45;;;;;;;5.53;3.60;;;18.00;97.30;;;;;;5016222;28;20454;-87
2022/07/30 04:32:11;;;;;;;3.67;3.47;;;18.10;97.30;;;;;;5016601;28;20422;-86
2022/07/30 04:34:51;;;;;;;5.27;3.70;;;18.10;97.30;;;;;;5016332;28;20415;-86
2022/07/30 04:37:19;;;;;;;5.73;3.63;;;18.10;97.30;;;;;;5016379;28;20461;-86
2022/07/30 04:39:44;;;;;;;5.80;3.80;;;18.10;97.30;;;;;;5015969;28;20469;-86
2022/07/30 04:42:10;;;;;;;4.97;3.80;;;18.10;97.30;;;;;;5033783;28;20912;-86
2022/07/30 04:44:37;;;;;;;4.53;4.23;;;18.10;97.30;;;;;;5016233;28;20230;-86
2022/07/30 04:47:03;;;;;;;7.33;4.50;;;18.10;97.30;;;;;;5016274;28;20423;-86
2022/07/30 04:49:30;;;;;;;4.13;3.80;;;18.10;97.30;;;;;;5016314;28;21103;-86
2022/07/30 04:51:56;;;;;;;4.50;3.90;;;18.10;97.30;;;;;;5015900;28;20267;-87
2022/07/30 04:54:24;;;;;;;3.73;3.53;;;18.10;97.30;;;;;;5033787;28;20471;-87
2022/07/30 04:56:51;;;;;;;8.93;3.87;;;18.10;97.30;;;;;;5015658;28;20484;-86
2022/07/30 04:59:17;;;;;;;3.63;3.07;;;18.00;97.30;;;;;;5033382;28;20485;-87
2022/07/30 05:01:47;;;;;;;6.17;4.30;;;18.00;97.30;;;;;;5015549;28;20422;-87
2022/07/30 05:04:14;;;;;;;7.30;3.87;;;18.00;97.30;;;;;;5015715;28;20454;-87
2022/07/30 05:06:41;;;;;;;6.40;3.70;;;17.90;97.30;;;;;;5015850;28;20491;-86
2022/07/30 05:09:07;;;;;;;3.33;3.17;;;17.90;97.30;;;;;;5015658;28;21019;-86
2022/07/30 05:11:33;;;;;;;6.87;3.93;;;17.90;97.30;;;;;;5032681;28;20411;-87
2022/07/30 05:13:58;;;;;;;5.23;3.57;;;17.80;97.30;;;;;;5014786;28;20419;-87
2022/07/30 05:16:24;;;;;;;2.57;2.37;;;17.90;97.30;;;;;;5015120;28;20350;-87
2022/07/30 05:18:50;;;;;;;3.10;2.93;;;17.90;97.30;;;;;;5014985;28;20200;-86
2022/07/30 05:21:16;;;;;;;3.03;2.57;;;17.90;97.30;;;;;;5014755;28;20626;-86
2022/07/30 05:23:42;;;;;;;3.87;3.10;;;17.90;97.30;;;;;;5014771;28;20434;-86
2022/07/30 05:26:07;;;;;;;3.40;3.23;;;17.90;97.30;;;;;;5014914;28;20621;-86
2022/07/30 05:28:33;;;;;;;3.70;3.37;;;17.90;97.30;;;;;;5014850;28;20366;-86
2022/07/30 05:30:58;;;;;;;5.13;4.27;;;17.90;97.30;;;;;;5014890;28;20573;-86
2022/07/30 05:33:24;;;;;;;4.10;3.17;;;18.00;97.30;;;;;;5015096;28;20176;-86
2022/07/30 05:35:50;;;;;;;4.30;3.53;;;18.00;97.30;;;;;;5032498;28;20606;-85
2022/07/30 05:38:16;;;;;;;4.07;3.33;;;18.00;97.30;;;;;;5015288;28;20192;-86
2022/07/30 05:40:43;;;;;;;3.57;1.83;;;18.10;97.30;;;;;;5015278;28;20203;-86
2022/07/30 05:43:09;;;;;;;3.70;3.17;;;18.10;97.30;;;;;;5015248;28;20423;-86
2022/07/30 05:45:34;;;;;;;5.47;3.80;;;18.10;97.30;;;;;;5015044;28;20785;-86
2022/07/30 05:48:00;;;;;;;3.27;3.07;;;18.10;97.30;;;;;;5015398;28;20794;-86
2022/07/30 05:50:26;;;;;;;3.17;2.73;;;18.20;97.30;;;;;;5015119;28;20200;-86
2022/07/30 05:52:51;;;;;;;3.63;3.17;;;18.20;97.30;;;;;;5015228;28;20431;-86
2022/07/30 05:55:17;;;;;;;4.03;3.83;;;18.30;97.30;;;;;;5014946;28;20191;-85
2022/07/30 05:57:43;;;;;;;6.83;3.13;;;18.30;97.30;;;;;;5015218;28;20625;-86
2022/07/30 06:00:11;;;;;;;4.87;3.17;;;18.30;97.30;;;;;;5015094;28;20184;-86
2022/07/30 06:02:38;;;;;;;5.30;3.73;;;18.40;97.30;;;;;;5015787;28;20207;-86
2022/07/30 06:05:04;;;;;;;7.37;3.73;;;18.40;97.30;;;;;;5014228;28;20542;-86
2022/07/30 06:07:30;;;;;;;2.90;2.70;;;18.40;97.30;;;;;;5014669;28;20465;-85
2022/07/30 06:09:59;;;;;;;3.43;3.07;;;18.40;97.30;;;;;;5014972;28;21065;-86
2022/07/30 06:12:25;;;;;;;4.43;2.63;;;18.40;97.30;;;;;;5014739;28;20845;-86
2022/07/30 06:14:51;;;;;;;3.17;2.83;;;18.40;97.30;;;;;;5015241;28;20419;-86
2022/07/30 06:17:17;;;;;;;5.77;3.53;;;18.50;97.30;;;;;;5014522;28;20472;-85
2022/07/30 06:19:42;;;;;;;8.50;3.73;;;18.50;97.30;;;;;;5014252;28;20211;-86
2022/07/30 06:22:08;;;;;;;3.40;3.20;;;18.50;97.30;;;;;;5015671;28;20597;-86
2022/07/30 06:24:34;;;;;;;3.33;2.57;;;18.50;97.30;;;;;;5018861;28;20227;-86
2022/07/30 06:26:59;;;;;;;4.90;4.23;;;18.60;97.30;;;;;;5018785;28;20187;-86
2022/07/30 06:29:25;;;;;;;3.33;3.13;;;18.60;97.30;;;;;;5019154;28;20510;-86
2022/07/30 06:31:51;;;;;;;9.33;3.70;;;18.60;97.30;;;;;;5018989;28;20176;-86
2022/07/30 06:34:16;;;;;;;5.27;3.73;;;18.60;97.30;;;;;;5018470;28;20172;-86
2022/07/30 06:36:42;;;;;;;3.90;3.73;;;18.60;97.30;;;;;;5018890;28;20641;-86
2022/07/30 06:39:07;;;;;;;10.23;4.60;;;18.60;97.30;;;;;;5018826;28;20200;-86
2022/07/30 06:41:33;;;;;;;5.50;3.93;;;18.60;97.30;;;;;;5018460;28;20207;-86
2022/07/30 06:43:59;;;;;;;4.23;2.57;;;18.60;97.30;;;;;;5018670;28;20208;-86
2022/07/30 06:46:25;;;;;;;5.10;3.37;;;18.60;97.30;;;;;;5018728;28;20185;-86
2022/07/30 06:48:50;;;;;;;3.40;3.20;;;18.60;97.30;;;;;;5018451;28;20703;-86
2022/07/30 06:51:16;;;;;;;6.80;4.30;;;18.60;97.30;;;;;;5035852;28;20541;-86
2022/07/30 06:53:44;;;;;;;6.30;3.90;;;18.50;97.30;;;;;;5018098;28;20653;-86
2022/07/30 06:56:11;;;;;;;16.30;4.67;;;18.50;97.30;;;;;;5017804;28;20423;-86
2022/07/30 06:58:37;;;;;;;7.80;4.93;;;18.50;97.30;;;;;;5017488;28;20443;-86
2022/07/30 07:01:02;;;;;;;5.93;5.37;;;18.50;97.30;;;;;;5017653;28;20411;-85
2022/07/30 07:03:28;;;;;;;11.03;3.63;;;18.50;97.30;;;;;;5017513;28;20458;-86
2022/07/30 07:05:53;;;;;;;4.97;2.80;;;18.50;97.30;;;;;;5017848;28;20180;-86
2022/07/30 07:08:19;;;;;;;6.23;4.20;;;18.50;97.30;;;;;;5017395;28;20547;-86
2022/07/30 07:10:45;;;;;;;3.70;3.10;;;18.40;97.30;;;;;;5035316;28;20669;-86
2022/07/30 07:13:10;;;;;;;15.83;4.50;;;18.40;97.30;;;;;;5017763;28;20184;-86
2022/07/30 07:15:36;;;;;;;4.77;4.03;;;18.40;97.30;;;;;;5017663;28;20177;-86
2022/07/30 07:18:01;;;;;;;3.73;3.00;;;18.40;97.30;;;;;;5017502;28;20200;-86
2022/07/30 07:20:27;;;;;;;6.23;4.77;;;18.40;97.30;;;;;;5017778;28;20184;-85
2022/07/30 07:22:52;;;;;;;4.63;3.50;;;18.40;97.30;;;;;;5017184;28;20661;-85
2022/07/30 07:25:18;;;;;;;6.20;4.10;;;18.30;97.30;;;;;;5017098;28;20250;-86
2022/07/30 07:27:44;;;;;;;8.40;4.20;;;18.30;97.30;;;;;;5016937;28;20187;-86
2022/07/30 07:30:10;;;;;;;5.63;4.83;;;18.30;97.30;;;;;;5016931;28;20486;-86
2022/07/30 07:32:36;;;;;;;2.70;2.50;;;18.30;97.30;;;;;;5016445;28;20180;-86
2022/07/30 07:35:02;;;;;;;5.27;3.43;;;18.30;97.30;;;;;;5016166;28;20459;-86
2022/07/30 07:37:28;;;;;;;3.30;2.70;;;18.30;97.30;;;;;;5016514;28;20588;-85
2022/07/30 07:39:53;;;;;;;3.80;3.60;;;18.30;97.30;;;;;;5016907;28;21106;-85
2022/07/30 07:42:19;;;;;;;6.73;4.40;;;18.30;97.30;;;;;;5016593;28;20472;-85
2022/07/30 07:44:45;;;;;;;3.90;3.27;;;18.30;97.30;;;;;;5016929;28;20191;-86
2022/07/30 07:47:10;;;;;;;4.50;3.03;;;18.30;97.30;;;;;;5034592;28;20176;-85
2022/07/30 07:49:36;;;;;;;7.47;5.20;;;18.30;97.30;;;;;;5034063;28;20208;-86
2022/07/30 07:52:01;;;;;;;4.47;2.87;;;18.30;97.30;;;;;;5016577;28;20191;-86
2022/07/30 07:54:27;;;;;;;4.73;3.33;;;18.30;97.30;;;;;;5016421;28;20173;-86
2022/07/30 07:56:55;;;;;;;5.37;4.30;;;18.30;97.30;;;;;;5016415;28;20176;-85
2022/07/30 07:59:22;;;;;;;5.30;3.13;;;18.20;97.30;;;;;;5016620;28;20204;-85
2022/07/30 08:01:48;;;;;;;6.47;3.37;;;18.20;97.30;;;;;;5016120;28;20920;-85
2022/07/30 08:04:13;;;;;;;2.90;2.70;;;18.20;97.30;;;;;;5016572;28;20462;-85
2022/07/30 08:06:39;;;;;;;4.00;3.80;;;18.10;97.30;;;;;;5050038;22;20236;-88
2022/07/30 08:09:04;;;;;;;3.47;3.00;;;18.10;97.30;;;;;;5033870;28;20180;-87
2022/07/30 08:11:30;;;;;;;6.57;3.60;;;18.10;97.30;;;;;;5034470;28;20217;-87
2022/07/30 08:13:56;;;;;;;7.70;3.60;;;18.10;97.30;;;;;;5052206;28;20267;-87
2022/07/30 08:16:21;;;;;;;8.30;3.60;;;18.10;97.30;;;;;;5032921;28;20295;-87
2022/07/30 08:18:47;;;;;;;7.10;4.03;;;18.10;97.30;;;;;;5022666;28;20552;-86
2022/07/30 08:21:14;;;;;;;4.80;3.50;;;18.10;97.30;;;;;;5019499;28;20279;-87
2022/07/30 08:23:40;;;;;;;4.53;3.93;;;18.10;97.30;;;;;;5018286;28;20280;-87
2022/07/30 08:26:05;;;;;;;5.97;3.67;;;18.00;97.30;;;;;;5015618;28;20672;-88
2022/07/30 08:28:31;;;;;;;3.70;2.63;;;18.00;97.30;;;;;;5014892;28;20424;-88
2022/07/30 08:30:56;;;;;;;3.90;2.60;;;18.10;97.30;;;;;;5025714;28;20211;-88
2022/07/30 08:33:22;;;;;;;7.73;4.53;;;18.10;97.30;;;;;;5020783;28;20172;-87
2022/07/30 08:35:48;;;;;;;7.00;4.53;;;18.10;97.30;;;;;;5033855;28;20180;-87
2022/07/30 08:38:13;;;;;;;4.87;3.73;;;18.10;97.30;;;;;;5046019;28;20176;-88
2022/07/30 08:40:39;;;;;;;7.23;3.10;;;18.10;97.30;;;;;;5032185;28;20202;-88
2022/07/30 08:43:06;;;;;;;6.20;5.07;;;18.10;97.30;;;;;;5014119;28;20216;-87
2022/07/30 08:45:33;;;;;;;3.30;3.03;;;18.20;97.30;;;;;;5026615;28;20230;-89
2022/07/30 08:48:00;;;;;;;6.43;3.70;;;18.10;97.30;;;;;;5013999;28;20431;-88
2022/07/30 08:50:29;;;;;;;4.50;4.20;;;18.20;97.30;;;;;;5031986;28;20877;-87
2022/07/30 08:52:56;;;;;;;4.50;3.57;;;18.20;97.30;;;;;;5025033;28;20491;-88
2022/07/30 08:55:22;;;;;;;4.90;3.73;;;18.20;97.30;;;;;;5038766;28;20471;-88
2022/07/30 08:57:48;;;;;;;44.37;4.73;;;18.20;97.30;;;;;;5033179;28;20442;-88
2022/07/30 09:00:15;;;;;;;5.73;3.87;;;18.20;97.30;;;;;;5033361;28;20425;-88
2022/07/30 09:02:41;;;;;;;5.47;3.87;;;18.20;97.30;;;;;;5039382;28;20929;-88
2022/07/30 09:05:07;;;;;;;5.37;3.00;;;18.30;97.30;;;;;;5014141;28;20526;-87
2022/07/30 09:07:34;;;;;;;2.97;2.53;;;18.30;97.30;;;;;;5013916;28;20220;-88
2022/07/30 09:10:00;;;;;;;5.00;3.63;;;18.30;97.30;;;;;;5031714;28;20469;-88
2022/07/30 09:12:35;;;;;;;4.63;4.37;;;18.30;97.30;;;;;;5021139;28;20480;-87
2022/07/30 09:15:15;;;;;;;3.33;3.03;;;18.30;97.30;;;;;;5018869;28;20183;-88
2022/07/30 09:17:52;;;;;;;4.87;3.80;;;18.30;97.30;;;;;;5014386;28;20500;-88
2022/07/30 09:20:20;;;;;;;3.43;3.20;;;18.30;97.30;;;;;;5026479;28;20461;-87
2022/07/30 09:22:52;;;;;;;3.67;3.37;;;18.30;97.30;;;;;;5022045;28;20432;-88
2022/07/30 09:25:36;;;;;;;3.77;2.63;;;18.30;97.30;;;;;;5023174;28;20875;-87
2022/07/30 09:28:02;;;;;;;14.13;4.10;;;18.30;97.30;;;;;;5029583;28;20427;-87
2022/07/30 09:30:46;;;;;;;8.50;5.10;;;18.30;97.30;;;;;;5013757;28;20489;-88
2022/07/30 09:33:12;;;;;;;5.43;3.83;;;18.30;97.30;;;;;;4994697;28;20915;-88
2022/07/30 09:35:38;;;;;;;3.60;3.40;;;18.30;97.30;;;;;;5024117;28;21109;-88
2022/07/30 09:38:05;;;;;;;10.20;6.60;;;18.30;97.30;;;;;;5024373;28;20464;-88
2022/07/30 09:40:31;;;;;;;8.43;4.63;;;18.30;97.30;;;;;;5018673;28;20434;-87
2022/07/30 09:43:10;;;;;;;17.90;4.53;;;18.30;97.30;;;;;;5039306;28;20414;-88
2022/07/30 09:45:56;;;;;;;6.93;4.70;;;18.30;97.30;;;;;;5028525;28;20180;-88
2022/07/30 09:48:23;;;;;;;7.10;5.60;;;18.30;97.30;;;;;;5026664;28;20418;-87
2022/07/30 09:50:50;;;;;;;3.77;3.60;;;18.30;97.30;;;;;;5025890;28;20501;-88
2022/07/30 09:53:16;;;;;;;10.10;4.23;;;18.40;97.30;;;;;;5015227;28;20474;-88
2022/07/30 09:55:42;;;;;;;5.77;4.40;;;18.40;97.30;;;;;;5044781;28;20431;-88
2022/07/30 09:58:08;;;;;;;7.27;5.03;;;18.40;97.30;;;;;;5031186;28;20713;-87
2022/07/30 10:00:36;;;;;;;3.80;3.60;;;18.40;97.30;;;;;;5013553;28;20267;-88
2022/07/30 10:03:20;;;;;;;6.37;3.70;;;18.40;97.30;;;;;;5013613;28;20510;-89
2022/07/30 10:05:55;;;;;;;6.20;3.80;;;18.30;97.30;;;;;;5022786;28;20828;-88
2022/07/30 10:08:44;;;;;;;6.63;5.30;;;18.30;97.30;;;;;;5043524;28;20988;-88
2022/07/30 10:11:21;;;;;;;5.80;4.70;;;18.30;97.30;;;;;;5013642;28;20470;-88
2022/07/30 10:13:48;;;;;;;4.70;4.40;;;18.40;97.30;;;;;;5040392;28;20437;-87
2022/07/30 10:16:13;;;;;;;7.33;4.50;;;18.40;97.30;;;;;;5015770;28;20443;-88
2022/07/30 10:18:41;;;;;;;5.20;4.93;;;18.40;97.30;;;;;;5012917;28;20420;-87
2022/07/30 10:21:07;;;;;;;10.60;4.07;;;18.40;97.30;;;;;;5028393;28;20469;-88
2022/07/30 10:23:34;;;;;;;7.60;5.20;;;18.40;97.30;;;;;;5032045;28;20430;-87
2022/07/30 10:26:00;;;;;;;8.17;6.13;;;18.40;97.30;;;;;;5015588;28;20299;-87
2022/07/30 10:28:28;;;;;;;7.10;4.63;;;18.40;97.30;;;;;;5012922;28;20430;-88
2022/07/30 10:30:55;;;;;;;5.83;4.27;;;18.40;97.30;;;;;;5030662;28;20458;-88
2022/07/30 10:33:27;;;;;;;7.50;4.50;;;18.40;97.30;;;;;;5012254;28;20439;-87
2022/07/30 10:35:52;;;;;;;3.77;3.57;;;18.40;97.30;;;;;;5012796;28;20439;-88
2022/07/30 10:38:22;;;;;;;9.03;6.60;;;18.40;97.30;;;;;;5012798;28;20800;-88
2022/07/30 10:40:54;;;;;;;6.50;4.33;;;18.40;97.30;;;;;;5012703;28;20639;-88
2022/07/30 10:43:41;;;;;;;5.80;5.03;;;18.40;97.30;;;;;;5012681;28;20427;-88
2022/07/30 10:46:25;;;;;;;5.13;4.53;;;18.40;97.30;;;;;;5002030;28;20496;-87
2022/07/30 10:48:51;;;;;;;7.07;4.03;;;18.30;97.30;;;;;;5014587;28;20870;-88
2022/07/30 10:51:17;;;;;;;6.00;3.83;;;18.30;97.30;;;;;;5012626;28;20451;-88
2022/07/30 10:53:45;;;;;;;11.80;6.37;;;18.30;97.30;;;;;;5012442;28;20558;-88
2022/07/30 10:56:24;;;;;;;3.80;3.60;;;18.20;97.30;;;;;;5041438;28;20852;-87
2022/07/30 10:59:19;;;;;;;14.57;5.03;;;18.20;97.30;;;;;;4999601;28;20403;-87
2022/07/30 11:01:47;;;;;;;5.70;3.80;;;18.20;97.30;;;;;;4999731;28;20423;-88
2022/07/30 11:04:21;;;;;;;6.50;4.73;;;18.20;97.30;;;;;;5012847;28;20964;-89
2022/07/30 11:06:47;;;;;;;5.13;3.60;;;18.20;97.30;;;;;;5030786;28;20446;-88
2022/07/30 11:09:36;;;;;;;3.97;3.27;;;18.20;97.30;;;;;;5032915;28;20434;-87
2022/07/30 11:12:03;;;;;;;7.43;5.00;;;18.20;97.30;;;;;;5005461;28;20805;-88
2022/07/30 11:14:48;;;;;;;7.83;3.47;;;18.20;97.30;;;;;;5028340;28;20468;-88
2022/07/30 11:17:18;;;;;;;3.83;3.63;;;18.20;97.30;;;;;;5015910;28;20446;-88
2022/07/30 11:20:09;;;;;;;4.47;3.40;;;18.20;97.30;;;;;;5038251;28;20510;-87
2022/07/30 11:22:40;;;;;;;7.60;3.93;;;18.20;97.30;;;;;;5022462;28;20846;-88
2022/07/30 11:25:29;;;;;;;14.60;4.90;;;18.20;97.30;;;;;;5026913;28;20427;-88
2022/07/30 11:27:56;;;;;;;6.57;3.53;;;18.30;97.30;;;;;;5020936;28;20446;-88
2022/07/30 11:30:21;;;;;;;7.77;5.50;;;18.30;97.30;;;;;;5023195;28;20454;-88
2022/07/30 11:32:48;;;;;;;7.30;4.73;;;18.40;97.30;;;;;;5020895;28;20800;-88
2022/07/30 11:35:21;;;;;;;8.53;4.53;;;18.40;97.30;;;;;;5052846;28;20672;-87
2022/07/30 11:38:22;;;;;;;10.27;6.50;;;18.50;97.30;;;;;;5022418;28;20433;-88
2022/07/30 11:40:47;;;;;;;8.00;5.57;;;18.60;97.30;;;;;;4954052;28;20932;-87
2022/07/30 11:43:40;;;;;;;4.43;4.13;;;18.60;97.30;;;;;;5003663;28;20502;-87
2022/07/30 11:46:12;;;;;;;6.00;3.57;;;18.70;97.30;;;;;;5028049;28;20451;-87
2022/07/30 11:48:55;;;;;;;11.27;5.37;;;18.70;97.30;;;;;;5033788;28;20418;-87
2022/07/30 11:51:21;;;;;;;11.67;4.17;;;18.80;97.30;;;;;;5015626;28;20695;-87
2022/07/30 11:54:04;;;;;;;4.37;3.57;;;18.80;97.30;;;;;;5028392;28;20421;-87
2022/07/30 11:56:30;;;;;;;7.97;5.23;;;18.80;97.30;;;;;;5028472;28;20439;-87
2022/07/30 11:59:06;;;;;;;3.77;3.50;;;18.80;97.30;;;;;;5015765;28;20419;-88
2022/07/30 12:01:33;;;;;;;6.57;3.97;;;18.90;97.30;;;;;;5015147;28;20810;-86
2022/07/30 12:04:04;;;;;;;5.93;4.03;;;18.90;97.30;;;;;;5024084;28;20449;-87
2022/07/30 12:06:35;;;;;;;8.20;6.10;;;18.90;97.30;;;;;;5017655;28;20490;-86
2022/07/30 12:09:01;;;;;;;3.37;3.10;;;19.00;97.30;;;;;;5021396;28;20451;-86
2022/07/30 12:11:34;;;;;;;8.50;5.37;;;19.00;97.30;;;;;;5011537;28;20994;-87
2022/07/30 12:14:01;;;;;;;3.97;3.63;;;19.10;97.30;;;;;;5022091;28;20250;-87
2022/07/30 12:16:27;;;;;;;4.93;4.40;;;19.10;97.30;;;;;;5017565;28;20438;-87
2022/07/30 12:18:54;;;;;;;4.17;3.93;;;19.10;97.30;;;;;;5031181;28;20442;-87
2022/07/30 12:21:20;;;;;;;5.40;5.10;;;19.10;97.30;;;;;;5027282;28;20461;-87
2022/07/30 12:24:03;;;;;;;5.00;3.50;;;19.10;97.30;;;;;;5011341;28;20424;-87
2022/07/30 12:26:30;;;;;;;7.20;4.37;;;19.20;97.30;;;;;;5019312;28;20221;-88
2022/07/30 12:28:59;;;;;;;8.30;5.10;;;19.20;97.30;;;;;;5030355;28;20468;-86
2022/07/30 12:31:26;;;;;;;4.10;3.27;;;19.20;97.30;;;;;;5011531;28;20452;-88
2022/07/30 12:33:51;;;;;;;4.27;3.50;;;19.20;97.30;;;;;;5024359;28;20415;-87
2022/07/30 12:36:31;;;;;;;3.50;3.03;;;19.20;97.30;;;;;;5011361;28;20494;-87
2022/07/30 12:38:57;;;;;;;11.30;4.17;;;19.20;97.30;;;;;;5012594;28;20540;-87
2022/07/30 12:41:44;;;;;;;2.80;2.60;;;19.20;97.30;;;;;;5011054;28;20448;-86
2022/07/30 12:44:10;;;;;;;4.37;4.03;;;19.10;97.30;;;;;;5024021;28;20503;-87
2022/07/30 12:46:40;;;;;;;5.70;4.53;;;19.20;97.30;;;;;;5011560;28;21022;-87
2022/07/30 12:49:07;;;;;;;3.30;3.03;;;19.20;97.30;;;;;;5011321;28;20193;-87
2022/07/30 12:51:36;;;;;;;6.10;3.33;;;19.20;97.30;;;;;;5012339;28;20452;-87
2022/07/30 12:54:15;;;;;;;6.97;4.57;;;19.30;97.30;;;;;;5010740;28;20416;-87